Time;durP1;ratioP1;P1;durP2;ratioP2;P2;SDS_P1;SDS_P2;PMS_P1;PMS_P2;Temp;Humidity;BMP_temperature;BMP_pressure;BME280_temperature;BME280_humidity;BME280_pressure;Samples;Min_cycle;Max_cycle;Signal;HPM_P1;HPM_P2
2022/04/10 00:01:49;;;;;;;6.63;2.00;;;13.50;99.90;;;;;;4988943;28;20198;-67
2022/04/10 00:04:16;;;;;;;8.53;2.57;;;13.50;99.90;;;;;;4991918;28;20276;-67
2022/04/10 00:06:43;;;;;;;9.37;2.13;;;13.40;99.90;;;;;;4988524;28;20230;-67
2022/04/10 00:09:13;;;;;;;5.83;2.43;;;13.40;99.90;;;;;;4988048;28;20190;-68
2022/04/10 00:11:40;;;;;;;9.10;2.90;;;13.30;99.90;;;;;;4990652;28;20252;-67
2022/04/10 00:14:06;;;;;;;8.23;2.47;;;13.30;99.90;;;;;;4990396;28;20182;-67
2022/04/10 00:16:33;;;;;;;7.43;2.60;;;13.20;99.90;;;;;;4990343;28;20217;-67
2022/04/10 00:19:04;;;;;;;6.83;2.23;;;13.20;99.90;;;;;;4990166;28;20201;-67
2022/04/10 00:21:33;;;;;;;9.13;2.50;;;13.20;99.90;;;;;;4987687;28;20181;-68
2022/04/10 00:24:00;;;;;;;10.33;2.43;;;13.20;99.90;;;;;;4967851;28;20539;-67
2022/04/10 00:26:26;;;;;;;8.70;2.50;;;13.10;99.90;;;;;;4990107;28;20205;-68
2022/04/10 00:28:53;;;;;;;6.33;1.93;;;13.10;99.90;;;;;;4972353;28;20196;-67
2022/04/10 00:31:20;;;;;;;7.07;2.20;;;13.20;99.90;;;;;;4990243;28;20193;-67
2022/04/10 00:33:46;;;;;;;6.70;2.10;;;13.10;99.90;;;;;;4990019;28;20194;-67
2022/04/10 00:36:13;;;;;;;8.30;2.43;;;13.20;99.90;;;;;;5004571;28;20209;-67
2022/04/10 00:38:40;;;;;;;7.63;1.90;;;13.10;99.90;;;;;;4971555;28;20205;-67
2022/04/10 00:41:06;;;;;;;7.57;2.07;;;13.10;99.90;;;;;;4990197;28;20196;-67
2022/04/10 00:43:34;;;;;;;8.40;2.40;;;13.10;99.90;;;;;;4982476;28;20744;-67
2022/04/10 00:46:01;;;;;;;9.23;2.67;;;13.10;99.90;;;;;;5005031;28;20221;-67
2022/04/10 00:48:28;;;;;;;9.00;2.00;;;13.10;99.90;;;;;;4989336;28;20304;-67
2022/04/10 00:53:42;;;;;;;10.47;2.47;;;13.20;99.90;;;;;;4987693;28;20622;-67
2022/04/10 00:56:09;;;;;;;6.90;2.10;;;13.20;99.90;;;;;;4987924;28;20209;-67
2022/04/10 00:58:35;;;;;;;5.87;1.97;;;13.20;99.90;;;;;;4987299;28;20332;-67
2022/04/10 01:01:02;;;;;;;6.60;2.23;;;13.30;99.90;;;;;;4989620;28;20190;-67
2022/04/10 01:03:28;;;;;;;6.30;2.10;;;13.20;99.90;;;;;;4989894;28;20212;-67
2022/04/10 01:05:55;;;;;;;7.57;2.07;;;13.20;99.90;;;;;;4989174;28;20197;-67
2022/04/10 01:08:24;;;;;;;11.20;2.53;;;13.20;99.90;;;;;;4989239;28;20213;-67
2022/04/10 01:10:50;;;;;;;9.00;2.30;;;13.30;99.90;;;;;;4989857;28;20232;-67
2022/04/10 01:13:17;;;;;;;12.07;2.47;;;13.30;99.90;;;;;;4986016;28;20649;-67
2022/04/10 01:15:43;;;;;;;13.87;2.40;;;13.40;99.90;;;;;;4987208;28;20316;-67
2022/04/10 01:18:11;;;;;;;10.20;2.80;;;13.50;99.90;;;;;;4986496;28;20232;-67
2022/04/10 01:20:38;;;;;;;10.50;2.13;;;13.60;99.90;;;;;;4991755;28;20185;-67
2022/04/10 01:23:06;;;;;;;5.87;2.50;;;13.60;99.90;;;;;;4987915;28;20207;-67
2022/04/10 01:25:32;;;;;;;6.97;2.00;;;13.60;99.90;;;;;;4987108;28;20773;-67
2022/04/10 01:28:01;;;;;;;9.83;2.10;;;13.60;99.90;;;;;;4987740;28;20296;-67
2022/04/10 01:30:28;;;;;;;6.73;1.73;;;13.60;99.90;;;;;;4985917;28;20207;-67
2022/04/10 01:32:54;;;;;;;8.17;1.90;;;13.60;99.90;;;;;;4986871;28;20192;-67
2022/04/10 01:35:25;;;;;;;4.07;1.80;;;13.60;99.90;;;;;;4988038;28;20208;-64
2022/04/10 01:37:54;;;;;;;5.63;1.87;;;13.60;99.90;;;;;;4987621;28;20190;-67
2022/04/10 01:40:21;;;;;;;5.60;1.50;;;13.50;99.90;;;;;;4988898;28;20276;-67
2022/04/10 01:42:48;;;;;;;4.87;1.60;;;13.60;99.90;;;;;;4971801;28;20224;-67
2022/04/10 01:45:14;;;;;;;7.50;1.90;;;13.50;99.90;;;;;;4970524;28;20193;-67
2022/04/10 01:47:40;;;;;;;5.30;1.97;;;13.40;99.90;;;;;;4987347;28;20696;-67
2022/04/10 01:50:07;;;;;;;6.47;1.87;;;13.40;99.90;;;;;;4987740;28;20186;-67
2022/04/10 01:52:34;;;;;;;7.77;1.40;;;13.40;99.90;;;;;;4987313;28;20197;-67
2022/04/10 01:55:00;;;;;;;4.60;1.77;;;13.30;99.90;;;;;;4985292;28;20664;-67
2022/04/10 01:57:26;;;;;;;4.50;1.30;;;13.40;99.90;;;;;;4987947;28;20293;-67
2022/04/10 01:59:52;;;;;;;4.87;1.37;;;13.50;99.90;;;;;;4987703;28;20529;-67
2022/04/10 02:02:19;;;;;;;3.57;1.33;;;13.80;99.90;;;;;;4990934;28;20197;-67
2022/04/10 02:04:46;;;;;;;9.20;1.97;;;14.20;99.90;;;;;;4993543;28;20181;-67
2022/04/10 02:07:12;;;;;;;3.37;1.30;;;14.40;99.90;;;;;;4992195;28;20221;-67
2022/04/10 02:09:38;;;;;;;3.77;1.60;;;14.50;99.90;;;;;;4992726;28;20599;-66
2022/04/10 02:12:05;;;;;;;5.43;1.20;;;14.60;99.90;;;;;;4991130;28;20554;-67
2022/04/10 02:14:31;;;;;;;8.00;1.57;;;14.70;99.90;;;;;;4990281;28;20207;-67
2022/04/10 02:16:57;;;;;;;9.60;1.67;;;14.80;99.90;;;;;;4992052;28;20217;-67
2022/04/10 02:19:24;;;;;;;6.67;2.23;;;14.80;99.90;;;;;;4992427;28;20610;-67
2022/04/10 02:21:55;;;;;;;4.17;1.60;;;14.80;99.90;;;;;;4991085;28;20209;-67
2022/04/10 02:24:21;;;;;;;7.03;1.50;;;14.90;99.90;;;;;;4974305;28;20189;-67
2022/04/10 02:26:47;;;;;;;5.33;1.30;;;14.90;99.90;;;;;;4990881;28;20275;-68
2022/04/10 02:29:13;;;;;;;2.90;1.30;;;14.90;99.90;;;;;;4990943;28;20603;-68
2022/04/10 02:31:39;;;;;;;2.90;1.20;;;15.00;99.90;;;;;;4990771;28;20708;-67
2022/04/10 02:34:06;;;;;;;5.67;1.70;;;15.10;99.90;;;;;;4991542;28;20181;-67
2022/04/10 02:36:32;;;;;;;4.70;1.40;;;15.20;99.90;;;;;;4991758;28;20217;-67
2022/04/10 02:38:58;;;;;;;8.50;1.43;;;15.10;99.90;;;;;;4991193;28;20232;-67
2022/04/10 02:41:24;;;;;;;3.83;1.57;;;15.10;99.90;;;;;;4992467;28;20228;-67
2022/04/10 02:43:50;;;;;;;4.97;1.37;;;15.30;99.90;;;;;;4989937;28;20998;-67
2022/04/10 02:46:17;;;;;;;4.03;1.80;;;15.30;99.90;;;;;;4992108;28;20575;-67
2022/04/10 02:48:43;;;;;;;6.53;1.50;;;15.40;99.90;;;;;;4974783;28;20291;-67
2022/04/10 02:51:09;;;;;;;4.37;1.03;;;15.60;99.20;;;;;;4991073;28;20630;-67
2022/04/10 02:53:36;;;;;;;7.93;1.43;;;15.70;99.30;;;;;;4992186;28;20198;-67
2022/04/10 02:56:02;;;;;;;3.63;1.03;;;15.80;98.70;;;;;;4990987;28;20545;-67
2022/04/10 02:58:28;;;;;;;5.83;1.40;;;15.80;98.80;;;;;;4980887;28;20578;-67
2022/04/10 03:00:55;;;;;;;4.77;1.40;;;15.70;98.70;;;;;;4990698;28;20200;-67
2022/04/10 03:03:21;;;;;;;4.33;1.30;;;15.80;98.10;;;;;;4992445;28;20197;-67
2022/04/10 03:05:48;;;;;;;5.40;1.43;;;15.80;98.20;;;;;;4974388;28;20185;-67
2022/04/10 03:08:14;;;;;;;5.73;1.77;;;15.90;98.00;;;;;;4991124;28;20625;-67
2022/04/10 03:10:40;;;;;;;6.93;1.53;;;15.90;98.50;;;;;;4991619;28;20321;-67
2022/04/10 03:13:07;;;;;;;6.60;1.67;;;15.90;98.30;;;;;;4991607;28;20204;-68
2022/04/10 03:15:33;;;;;;;9.33;1.40;;;16.00;98.40;;;;;;4990363;28;20267;-68
2022/04/10 03:18:01;;;;;;;5.77;1.90;;;16.00;98.30;;;;;;4990379;28;20216;-67
2022/04/10 03:20:28;;;;;;;9.07;1.60;;;16.10;97.80;;;;;;4991743;28;20665;-67
2022/04/10 03:22:54;;;;;;;5.10;1.40;;;16.20;98.60;;;;;;4991398;28;20247;-67
2022/04/10 03:25:20;;;;;;;6.30;1.33;;;16.20;98.60;;;;;;4989931;28;20207;-67
2022/04/10 03:27:46;;;;;;;4.83;1.40;;;16.20;98.20;;;;;;4990960;28;20213;-67
2022/04/10 03:30:14;;;;;;;4.17;1.60;;;16.20;98.50;;;;;;4990951;28;20186;-67
2022/04/10 03:32:41;;;;;;;3.00;1.47;;;16.10;98.50;;;;;;4990397;28;20196;-67
2022/04/10 03:35:08;;;;;;;4.60;1.27;;;16.10;98.30;;;;;;4991283;28;20217;-67
2022/04/10 03:37:34;;;;;;;8.23;1.50;;;16.10;98.30;;;;;;4990094;28;20189;-67
2022/04/10 03:40:03;;;;;;;6.30;1.60;;;16.10;99.90;;;;;;4990582;28;20279;-67
2022/04/10 03:42:41;;;;;;;5.27;1.27;;;16.00;99.90;;;;;;4989730;28;20190;-68
2022/04/10 03:45:09;;;;;;;6.00;1.67;;;15.90;99.90;;;;;;4990561;28;20198;-67
2022/04/10 03:47:36;;;;;;;6.40;1.40;;;15.90;99.90;;;;;;4990446;28;20619;-67
2022/04/10 03:50:04;;;;;;;7.17;1.50;;;15.70;99.90;;;;;;4990257;28;20324;-67
2022/04/10 03:52:31;;;;;;;5.53;1.57;;;15.70;99.90;;;;;;4987647;28;20311;-67
2022/04/10 03:54:58;;;;;;;6.83;1.57;;;15.50;99.90;;;;;;4990395;28;20193;-67
2022/04/10 03:57:24;;;;;;;3.17;1.23;;;15.40;99.90;;;;;;4989564;28;20196;-67
2022/04/10 03:59:50;;;;;;;8.73;1.40;;;15.30;99.90;;;;;;4989180;28;20280;-67
2022/04/10 04:02:17;;;;;;;8.70;1.90;;;15.20;99.90;;;;;;4988783;28;20795;-67
2022/04/10 04:04:43;;;;;;;6.23;1.50;;;15.20;99.90;;;;;;4990426;28;20563;-67
2022/04/10 04:07:10;;;;;;;4.47;1.70;;;15.20;99.90;;;;;;4990109;28;20214;-67
2022/04/10 04:09:36;;;;;;;3.87;1.30;;;15.20;99.90;;;;;;4983691;28;20197;-67
2022/04/10 04:12:02;;;;;;;4.37;1.47;;;15.20;99.90;;;;;;4990899;28;20193;-67
2022/04/10 04:14:28;;;;;;;4.80;2.00;;;15.20;99.90;;;;;;4987885;28;20650;-67
2022/04/10 04:16:59;;;;;;;3.73;1.93;;;15.20;99.90;;;;;;4990525;28;20209;-67
2022/04/10 04:19:25;;;;;;;3.33;1.33;;;15.20;99.90;;;;;;5004679;28;20313;-67
2022/04/10 04:21:51;;;;;;;9.80;1.83;;;15.20;99.90;;;;;;4990897;28;20775;-67
2022/04/10 04:24:17;;;;;;;4.93;1.60;;;15.20;99.90;;;;;;4989205;28;20650;-67
2022/04/10 04:26:44;;;;;;;6.10;1.83;;;15.10;99.90;;;;;;4989520;28;20201;-67
2022/04/10 04:29:10;;;;;;;4.50;1.50;;;15.10;99.90;;;;;;4989770;28;20193;-67
2022/04/10 04:31:36;;;;;;;3.77;1.53;;;15.10;99.90;;;;;;4990361;28;20288;-67
2022/04/10 04:34:03;;;;;;;3.67;1.40;;;15.10;99.90;;;;;;4989297;28;20196;-68
2022/04/10 04:36:30;;;;;;;7.57;1.80;;;15.10;99.90;;;;;;4970985;28;20531;-66
2022/04/10 04:38:57;;;;;;;7.17;1.90;;;15.10;99.90;;;;;;4973505;28;20190;-66
2022/04/10 04:41:23;;;;;;;4.70;1.63;;;15.00;99.90;;;;;;4990194;28;20193;-66
2022/04/10 04:43:50;;;;;;;5.80;1.50;;;15.10;99.90;;;;;;4988848;28;20200;-67
2022/04/10 04:46:16;;;;;;;9.33;1.97;;;15.10;99.90;;;;;;4988726;28;20740;-67
2022/04/10 04:48:42;;;;;;;8.13;2.00;;;15.10;99.90;;;;;;4979476;28;20216;-67
2022/04/10 04:51:08;;;;;;;7.40;1.50;;;15.10;99.90;;;;;;4988500;28;20189;-67
2022/04/10 04:53:35;;;;;;;4.73;1.73;;;15.10;99.90;;;;;;4989590;28;20657;-67
2022/04/10 04:56:01;;;;;;;6.73;1.73;;;15.20;99.90;;;;;;4989352;28;20276;-67
2022/04/10 04:58:27;;;;;;;8.50;2.20;;;15.30;99.90;;;;;;4987544;28;20296;-66
2022/04/10 05:00:53;;;;;;;8.70;2.10;;;15.30;99.90;;;;;;4989184;28;20193;-67
2022/04/10 05:03:20;;;;;;;9.07;2.33;;;15.30;99.90;;;;;;4989889;28;20207;-66
2022/04/10 05:05:47;;;;;;;7.07;2.00;;;15.30;99.90;;;;;;4988480;28;20716;-67
2022/04/10 05:08:14;;;;;;;7.30;2.20;;;15.30;99.90;;;;;;4988968;28;20279;-67
2022/04/10 05:10:40;;;;;;;11.50;3.73;;;15.40;99.90;;;;;;4990363;28;20662;-67
2022/04/10 05:13:08;;;;;;;10.60;4.20;;;15.40;99.90;;;;;;4988296;28;20236;-67
2022/04/10 05:15:34;;;;;;;15.23;6.03;;;15.40;99.90;;;;;;4972099;28;20217;-67
2022/04/10 05:18:01;;;;;;;11.87;3.50;;;15.50;99.90;;;;;;4971144;28;20281;-67
2022/04/10 05:20:27;;;;;;;16.10;3.70;;;15.60;99.90;;;;;;4972269;28;20190;-67
2022/04/10 05:22:53;;;;;;;13.67;3.47;;;15.60;99.90;;;;;;4972400;28;20206;-67
2022/04/10 05:25:19;;;;;;;16.80;3.97;;;15.60;99.90;;;;;;4989713;28;20244;-67
2022/04/10 05:27:46;;;;;;;18.03;3.63;;;15.60;99.90;;;;;;4987313;28;20216;-67
2022/04/10 05:30:13;;;;;;;16.53;4.10;;;15.60;99.90;;;;;;4987451;28;20579;-67
2022/04/10 05:32:42;;;;;;;20.43;3.63;;;15.60;99.90;;;;;;4988343;28;20193;-67
2022/04/10 05:35:10;;;;;;;14.90;3.53;;;15.60;99.90;;;;;;4987526;28;20185;-67
2022/04/10 05:37:36;;;;;;;16.40;3.57;;;15.60;99.90;;;;;;4989075;28;20197;-67
2022/04/10 05:40:04;;;;;;;15.43;3.97;;;15.70;99.90;;;;;;4988353;28;20197;-67
2022/04/10 05:42:30;;;;;;;18.40;4.33;;;15.70;99.90;;;;;;4987614;28;20689;-67
2022/04/10 05:45:04;;;;;;;13.47;3.70;;;15.70;99.90;;;;;;4987993;28;20193;-67
2022/04/10 05:47:31;;;;;;;21.87;3.70;;;15.80;99.90;;;;;;4988512;28;20224;-67
2022/04/10 05:49:57;;;;;;;16.07;3.97;;;15.80;99.90;;;;;;4989259;28;20189;-67
2022/04/10 05:52:24;;;;;;;15.07;3.90;;;15.80;99.90;;;;;;4987139;28;20200;-67
2022/04/10 05:54:50;;;;;;;20.77;3.97;;;15.90;99.90;;;;;;4983643;28;20193;-67
2022/04/10 05:57:16;;;;;;;18.33;4.07;;;15.90;99.90;;;;;;4987635;28;20189;-67
2022/04/10 05:59:42;;;;;;;22.60;4.70;;;15.90;99.90;;;;;;4985146;28;20190;-67
2022/04/10 06:02:09;;;;;;;21.77;4.40;;;15.90;99.90;;;;;;4986030;28;20204;-67
2022/04/10 06:04:35;;;;;;;16.30;4.30;;;15.90;99.90;;;;;;4982881;28;20185;-68
2022/04/10 06:07:01;;;;;;;19.73;4.43;;;16.00;99.90;;;;;;4958617;28;20273;-68
2022/04/10 06:09:27;;;;;;;20.37;4.30;;;16.00;99.90;;;;;;4969850;28;20194;-68
2022/04/10 06:11:54;;;;;;;15.40;4.13;;;16.10;99.90;;;;;;4984966;28;20300;-68
2022/04/10 06:14:20;;;;;;;11.73;3.43;;;16.10;99.90;;;;;;4993359;28;20288;-67
2022/04/10 06:16:48;;;;;;;13.47;3.60;;;16.10;99.90;;;;;;4986449;28;20545;-67
2022/04/10 06:19:18;;;;;;;13.50;3.70;;;16.20;99.90;;;;;;4988554;28;20217;-66
2022/04/10 06:21:45;;;;;;;12.63;3.70;;;16.20;99.90;;;;;;4988245;28;20194;-68
2022/04/10 06:24:11;;;;;;;14.73;3.90;;;16.30;99.90;;;;;;4979023;28;20193;-67
2022/04/10 06:26:38;;;;;;;17.83;3.77;;;16.30;99.90;;;;;;4981796;28;20268;-68
2022/04/10 06:29:04;;;;;;;13.93;3.80;;;16.30;99.90;;;;;;4986173;28;20225;-68
2022/04/10 06:31:31;;;;;;;15.83;3.87;;;16.30;99.90;;;;;;4969300;28;20189;-67
2022/04/10 06:33:57;;;;;;;14.90;4.20;;;16.40;99.90;;;;;;4987989;28;20264;-67
2022/04/10 06:36:24;;;;;;;14.30;4.40;;;16.50;99.90;;;;;;4988048;28;20197;-68
2022/04/10 06:38:53;;;;;;;17.63;4.07;;;16.50;99.90;;;;;;4984173;28;20560;-68
2022/04/10 06:41:19;;;;;;;22.30;4.53;;;16.60;99.90;;;;;;4966712;28;20850;-68
2022/04/10 06:43:45;;;;;;;12.03;3.47;;;16.60;99.90;;;;;;4981756;28;20194;-68
2022/04/10 06:46:12;;;;;;;12.50;3.63;;;16.70;99.90;;;;;;4985817;28;20198;-68
2022/04/10 06:48:39;;;;;;;17.13;3.77;;;16.70;99.90;;;;;;4984672;28;20241;-67
2022/04/10 06:51:05;;;;;;;23.50;4.77;;;16.90;99.90;;;;;;4991432;28;20190;-68
2022/04/10 06:53:32;;;;;;;13.50;3.47;;;17.10;99.90;;;;;;4991753;28;20601;-68
2022/04/10 06:55:58;;;;;;;18.23;4.23;;;17.10;99.90;;;;;;4990186;28;20534;-68
2022/04/10 06:58:24;;;;;;;15.00;3.70;;;17.10;99.90;;;;;;4968523;28;20203;-68
2022/04/10 07:00:51;;;;;;;17.60;4.07;;;17.00;99.90;;;;;;4964300;28;20182;-67
2022/04/10 07:03:17;;;;;;;22.47;3.97;;;17.10;99.90;;;;;;4986695;28;20201;-68
2022/04/10 07:05:44;;;;;;;18.87;4.20;;;17.00;99.90;;;;;;4989137;28;20194;-67
2022/04/10 07:08:11;;;;;;;14.33;3.40;;;17.00;99.90;;;;;;4988758;28;20359;-67
2022/04/10 07:10:37;;;;;;;16.60;4.17;;;17.10;99.90;;;;;;4982567;28;20877;-68
2022/04/10 07:13:04;;;;;;;19.53;3.83;;;17.10;99.90;;;;;;4990818;28;20217;-68
2022/04/10 07:15:31;;;;;;;16.67;3.97;;;17.20;99.90;;;;;;4987596;28;20662;-67
2022/04/10 07:17:58;;;;;;;15.07;3.97;;;17.20;99.90;;;;;;4985985;28;20194;-68
2022/04/10 07:20:27;;;;;;;17.60;4.07;;;17.30;99.90;;;;;;4982093;28;20292;-67
2022/04/10 07:25:41;;;;;;;16.00;4.00;;;17.40;99.90;;;;;;4989314;28;20189;-68
2022/04/10 07:28:07;;;;;;;16.97;3.73;;;17.40;99.90;;;;;;4989497;28;20308;-67
2022/04/10 07:30:34;;;;;;;17.23;4.27;;;17.50;99.90;;;;;;4991239;28;20209;-67
2022/04/10 07:33:00;;;;;;;16.77;3.87;;;17.60;99.90;;;;;;4989333;28;20193;-67
2022/04/10 07:35:27;;;;;;;18.57;4.40;;;17.60;99.90;;;;;;4989471;28;20198;-68
2022/04/10 07:37:53;;;;;;;20.00;4.27;;;17.70;99.90;;;;;;4990513;28;20578;-67
2022/04/10 07:40:20;;;;;;;17.80;4.20;;;17.80;99.90;;;;;;4989663;28;20736;-67
2022/04/10 07:42:53;;;;;;;22.40;3.87;;;17.80;99.90;;;;;;4989609;28;20289;-67
2022/04/10 07:48:04;;;;;;;19.30;4.60;;;17.80;99.90;;;;;;4977903;28;20225;-67
2022/04/10 07:50:32;;;;;;;22.03;4.23;;;17.90;99.90;;;;;;4984361;28;20193;-67
2022/04/10 07:52:58;;;;;;;20.90;4.83;;;17.90;99.90;;;;;;4990062;28;20248;-67
2022/04/10 07:55:28;;;;;;;26.30;4.83;;;18.00;99.90;;;;;;4991352;28;20197;-68
2022/04/10 07:57:54;;;;;;;19.13;4.10;;;18.10;99.90;;;;;;4982143;28;20194;-67
2022/04/10 08:00:21;;;;;;;21.40;4.73;;;18.10;99.90;;;;;;4983925;28;20181;-67
2022/04/10 08:02:48;;;;;;;15.37;3.87;;;18.10;99.90;;;;;;4973205;28;20923;-67
2022/04/10 08:05:17;;;;;;;16.17;4.23;;;18.20;99.90;;;;;;4991073;28;20182;-67
2022/04/10 08:07:46;;;;;;;18.70;4.63;;;18.30;99.90;;;;;;4989197;28;20214;-67
2022/04/10 08:10:13;;;;;;;18.73;4.53;;;18.30;99.90;;;;;;4990685;28;20197;-67
2022/04/10 08:12:41;;;;;;;18.70;4.30;;;18.30;99.90;;;;;;4987796;28;20905;-67
2022/04/10 08:15:09;;;;;;;18.83;4.43;;;18.30;99.90;;;;;;4988791;28;20193;-68
2022/04/10 08:17:35;;;;;;;17.90;3.93;;;18.30;99.90;;;;;;4988926;28;20182;-67
2022/04/10 08:20:04;;;;;;;12.33;3.63;;;18.40;99.90;;;;;;4989222;28;20200;-67
2022/04/10 08:22:32;;;;;;;13.13;3.90;;;18.40;99.90;;;;;;5005736;28;20657;-67
2022/04/10 08:25:04;;;;;;;17.73;4.20;;;18.60;99.90;;;;;;4989338;28;20562;-68
2022/04/10 08:27:31;;;;;;;15.90;3.97;;;18.60;99.90;;;;;;5005209;28;20678;-67
2022/04/10 08:29:58;;;;;;;24.93;4.70;;;18.60;99.90;;;;;;4990209;28;20209;-68
2022/04/10 08:32:25;;;;;;;18.87;4.43;;;18.70;99.90;;;;;;4990518;28;20194;-68
2022/04/10 08:34:53;;;;;;;19.53;4.20;;;18.70;99.90;;;;;;4989786;28;20320;-68
2022/04/10 08:37:19;;;;;;;16.10;4.07;;;18.70;99.90;;;;;;4986532;28;20193;-68
2022/04/10 08:39:45;;;;;;;16.30;3.60;;;18.80;99.90;;;;;;4990223;28;20218;-67
2022/04/10 08:42:12;;;;;;;21.60;4.40;;;18.80;99.90;;;;;;4988535;28;20339;-67
2022/04/10 08:44:38;;;;;;;16.70;5.27;;;18.80;99.90;;;;;;4989596;28;20296;-68
2022/04/10 08:47:06;;;;;;;25.80;4.93;;;18.90;99.90;;;;;;4988237;28;20797;-65
2022/04/10 08:49:35;;;;;;;17.17;4.20;;;18.90;99.90;;;;;;4986055;28;20827;-67
2022/04/10 08:52:01;;;;;;;16.27;4.13;;;18.90;99.90;;;;;;4988112;28;20190;-68
2022/04/10 08:54:28;;;;;;;17.63;4.30;;;18.90;99.90;;;;;;4988219;28;20233;-67
2022/04/10 08:56:55;;;;;;;15.17;4.23;;;19.00;99.90;;;;;;4989384;28;20228;-65
2022/04/10 08:59:22;;;;;;;22.10;4.40;;;19.10;99.90;;;;;;4987194;28;20198;-65
2022/04/10 09:01:56;;;;;;;19.83;4.43;;;19.10;99.90;;;;;;4988366;28;20850;-68
2022/04/10 09:04:25;;;;;;;19.30;4.30;;;19.20;99.90;;;;;;4987876;28;20868;-68
2022/04/10 09:07:00;;;;;;;20.13;4.33;;;19.30;99.90;;;;;;4988975;28;20332;-68
2022/04/10 09:09:26;;;;;;;19.70;4.17;;;19.50;99.90;;;;;;4987654;28;20204;-67
2022/04/10 09:11:54;;;;;;;22.20;4.03;;;19.50;99.90;;;;;;4990309;28;20184;-67
2022/04/10 09:14:40;;;;;;;18.37;4.70;;;19.60;99.90;;;;;;4989016;28;20239;-67
2022/04/10 09:17:22;;;;;;;23.97;4.30;;;19.70;99.90;;;;;;4972179;28;20250;-68
2022/04/10 09:19:51;;;;;;;18.33;4.43;;;19.70;99.90;;;;;;4988258;28;20259;-66
2022/04/10 09:22:37;;;;;;;17.20;4.00;;;19.80;99.90;;;;;;4987438;28;20653;-66
2022/04/10 09:25:16;;;;;;;21.13;4.53;;;19.90;99.90;;;;;;4980270;28;20300;-68
2022/04/10 09:27:48;;;;;;;11.33;3.80;;;20.10;99.90;;;;;;4989060;28;20728;-66
2022/04/10 09:30:33;;;;;;;16.70;4.10;;;20.10;99.90;;;;;;4985148;28;21127;-67
2022/04/10 09:33:00;;;;;;;21.00;4.43;;;20.20;99.90;;;;;;4985263;28;20676;-66
2022/04/10 09:35:27;;;;;;;15.70;3.87;;;20.40;99.90;;;;;;4989575;28;20186;-68
2022/04/10 09:37:56;;;;;;;14.70;4.13;;;20.50;99.90;;;;;;4987151;28;20239;-67
2022/04/10 09:40:37;;;;;;;15.93;4.40;;;20.70;99.90;;;;;;4989736;28;20231;-67
2022/04/10 09:43:12;;;;;;;23.13;4.77;;;20.70;99.90;;;;;;4990017;28;20264;-67
2022/04/10 09:45:43;;;;;;;17.30;4.77;;;20.80;99.90;;;;;;4989027;28;20683;-67
2022/04/10 09:48:32;;;;;;;19.50;4.87;;;20.80;99.90;;;;;;4987775;28;20712;-66
2022/04/10 09:51:01;;;;;;;16.13;4.37;;;20.90;99.90;;;;;;4989880;28;20186;-68
2022/04/10 09:53:29;;;;;;;14.47;4.10;;;21.10;99.90;;;;;;4984494;28;20635;-68
2022/04/10 09:56:00;;;;;;;17.43;4.53;;;21.20;99.90;;;;;;4988432;28;20224;-67
2022/04/10 09:58:27;;;;;;;19.03;3.93;;;21.40;99.90;;;;;;4982848;28;20209;-68
2022/04/10 10:00:55;;;;;;;19.10;4.00;;;21.50;99.90;;;;;;4979472;28;20202;-67
2022/04/10 10:03:29;;;;;;;16.73;4.23;;;21.70;99.90;;;;;;4968748;28;20198;-67
2022/04/10 10:05:59;;;;;;;22.13;4.33;;;21.90;99.90;;;;;;4978384;28;20189;-68
2022/04/10 10:08:28;;;;;;;20.37;4.53;;;21.90;99.90;;;;;;4988610;28;20232;-68
2022/04/10 10:10:56;;;;;;;14.13;4.00;;;21.90;99.90;;;;;;4989644;28;20190;-68
2022/04/10 10:13:26;;;;;;;14.77;4.20;;;22.20;99.90;;;;;;4989450;28;20668;-65
2022/04/10 10:15:55;;;;;;;18.60;4.33;;;23.10;99.90;;;;;;4988885;28;20207;-67
2022/04/10 10:18:25;;;;;;;20.80;3.80;;;24.70;99.90;;;;;;4984142;28;20288;-68
2022/04/10 10:20:52;;;;;;;16.13;4.47;;;25.10;99.90;;;;;;4989563;28;20209;-68
2022/04/10 10:23:22;;;;;;;16.37;4.00;;;23.70;99.90;;;;;;4991694;28;20613;-68
2022/04/10 10:26:27;;;;;;;14.67;4.20;;;22.90;99.90;;;;;;4992150;28;20653;-67
2022/04/10 10:29:53;;;;;;;16.70;4.10;;;22.50;99.90;;;;;;4992334;28;20217;-67
2022/04/10 10:32:56;;;;;;;20.60;3.87;;;22.30;99.90;;;;;;4933391;29;20742;-68
2022/04/10 10:35:40;;;;;;;16.57;4.03;;;22.30;99.90;;;;;;4951207;28;20204;-68
2022/04/10 10:38:23;;;;;;;15.83;4.40;;;22.10;99.90;;;;;;4987295;28;20197;-68
2022/04/10 10:40:52;;;;;;;15.27;3.60;;;22.00;99.90;;;;;;4989375;28;20197;-67
2022/04/10 10:43:22;;;;;;;22.60;5.00;;;21.90;99.90;;;;;;4992628;28;20182;-67
2022/04/10 10:45:54;;;;;;;17.77;3.70;;;21.90;99.90;;;;;;4991266;28;20197;-67
2022/04/10 10:48:42;;;;;;;17.17;4.10;;;21.80;99.90;;;;;;4987807;28;20224;-68
2022/04/10 10:51:11;;;;;;;16.17;3.77;;;21.80;99.90;;;;;;4985773;28;20287;-68
2022/04/10 10:53:53;;;;;;;16.13;3.40;;;21.80;99.90;;;;;;4991437;28;20216;-67
2022/04/10 10:56:21;;;;;;;14.77;3.73;;;21.70;99.90;;;;;;4987560;28;20181;-68
2022/04/10 10:58:50;;;;;;;16.57;4.53;;;21.70;99.90;;;;;;4988850;28;20204;-67
2022/04/10 11:01:28;;;;;;;18.30;4.07;;;21.70;99.90;;;;;;4988947;28;20190;-68
2022/04/10 11:04:07;;;;;;;13.97;3.83;;;21.60;99.90;;;;;;4986977;28;20641;-67
2022/04/10 11:06:45;;;;;;;14.70;3.80;;;21.50;99.90;;;;;;4973943;28;20246;-68
2022/04/10 11:09:32;;;;;;;14.70;3.60;;;21.60;99.90;;;;;;4992341;28;20228;-68
2022/04/10 11:11:59;;;;;;;15.33;3.93;;;21.60;99.90;;;;;;4992052;28;20193;-68
2022/04/10 11:14:44;;;;;;;19.90;3.70;;;21.60;99.90;;;;;;4968104;28;20194;-68
2022/04/10 11:17:17;;;;;;;14.47;3.77;;;21.50;99.90;;;;;;4984065;28;20854;-67
2022/04/10 11:19:46;;;;;;;17.10;3.63;;;21.50;99.90;;;;;;4989363;28;20236;-66
2022/04/10 11:22:19;;;;;;;15.83;4.33;;;21.50;99.90;;;;;;4975115;28;20856;-68
2022/04/10 11:24:45;;;;;;;15.33;3.90;;;21.60;99.90;;;;;;4983272;28;20205;-67
2022/04/10 11:27:13;;;;;;;16.97;3.60;;;21.50;99.90;;;;;;4990169;28;20218;-68
2022/04/10 11:30:02;;;;;;;14.03;3.70;;;21.50;99.90;;;;;;4988361;28;20744;-68
2022/04/10 11:32:52;;;;;;;19.47;3.87;;;21.40;99.90;;;;;;4996746;28;20252;-67
2022/04/10 11:35:26;;;;;;;13.20;3.47;;;21.40;99.90;;;;;;4966866;28;20726;-68
2022/04/10 11:37:59;;;;;;;17.67;4.40;;;21.30;99.90;;;;;;4987889;28;20209;-67
2022/04/10 11:40:30;;;;;;;13.23;3.83;;;21.20;99.90;;;;;;4984432;28;20227;-67
2022/04/10 11:42:58;;;;;;;17.90;4.40;;;21.20;99.90;;;;;;4978352;28;20273;-67
2022/04/10 11:45:28;;;;;;;19.80;4.27;;;21.20;99.90;;;;;;4979766;28;20205;-68
2022/04/10 11:47:55;;;;;;;15.67;4.03;;;21.20;99.90;;;;;;4988944;28;20360;-67
2022/04/10 11:50:30;;;;;;;17.20;3.90;;;21.20;99.90;;;;;;4983726;28;20272;-67
2022/04/10 11:53:14;;;;;;;14.60;3.57;;;21.10;99.90;;;;;;4984929;28;20312;-68
2022/04/10 11:55:46;;;;;;;18.93;3.77;;;21.10;99.90;;;;;;4989807;28;20193;-68
2022/04/10 11:58:25;;;;;;;15.13;3.83;;;21.10;99.90;;;;;;4984495;28;20670;-67
2022/04/10 12:00:59;;;;;;;16.67;4.00;;;21.10;99.90;;;;;;4981361;28;20201;-67
2022/04/10 12:03:29;;;;;;;17.87;3.97;;;21.10;99.90;;;;;;4997348;28;20351;-67
2022/04/10 12:05:59;;;;;;;18.20;4.13;;;21.10;99.90;;;;;;4984776;28;20562;-68
2022/04/10 12:08:31;;;;;;;12.90;4.03;;;21.10;99.90;;;;;;4967873;28;20224;-67
2022/04/10 12:11:02;;;;;;;20.63;3.73;;;21.10;99.90;;;;;;4969791;28;20217;-67
2022/04/10 12:13:34;;;;;;;10.77;3.50;;;21.10;99.90;;;;;;4969049;28;20193;-67
2022/04/10 12:16:10;;;;;;;11.63;3.43;;;21.10;99.90;;;;;;4971949;28;20217;-68
2022/04/10 12:18:52;;;;;;;12.70;3.53;;;21.20;99.90;;;;;;4985282;28;20336;-67
2022/04/10 12:21:22;;;;;;;14.20;3.67;;;21.20;99.90;;;;;;5000384;28;20309;-66
2022/04/10 12:24:04;;;;;;;13.57;3.47;;;21.10;99.90;;;;;;4988978;28;20205;-68
2022/04/10 12:26:33;;;;;;;15.13;3.43;;;21.10;99.90;;;;;;4988073;28;20284;-68
2022/04/10 12:29:03;;;;;;;17.13;3.80;;;21.10;99.90;;;;;;4988550;28;20240;-67
2022/04/10 12:31:32;;;;;;;12.70;3.90;;;21.10;99.90;;;;;;4983615;28;20197;-67
2022/04/10 12:34:00;;;;;;;13.93;3.53;;;21.00;99.90;;;;;;4979263;28;20236;-68
2022/04/10 12:36:28;;;;;;;18.70;4.03;;;21.00;99.90;;;;;;4988392;28;20260;-68
2022/04/10 12:38:55;;;;;;;11.33;3.47;;;21.00;99.90;;;;;;4980919;28;20204;-68
2022/04/10 12:41:30;;;;;;;11.00;3.27;;;21.00;99.90;;;;;;4978341;28;20252;-67
2022/04/10 12:44:05;;;;;;;14.37;3.77;;;20.90;99.90;;;;;;4983038;28;20212;-66
2022/04/10 12:46:39;;;;;;;14.73;3.43;;;20.90;99.90;;;;;;4979270;28;20859;-67
2022/04/10 12:49:19;;;;;;;15.83;3.67;;;20.90;99.90;;;;;;4983696;28;20236;-68
2022/04/10 12:52:03;;;;;;;13.90;3.77;;;20.80;99.90;;;;;;4999222;28;20185;-68
2022/04/10 12:54:37;;;;;;;13.97;3.77;;;20.80;99.90;;;;;;4978486;28;20220;-67
2022/04/10 12:57:06;;;;;;;15.53;3.50;;;20.90;99.90;;;;;;4977338;28;20235;-67
2022/04/10 12:59:44;;;;;;;13.80;3.33;;;20.90;99.90;;;;;;4987719;28;20216;-68